Time;durP1;ratioP1;P1;durP2;ratioP2;P2;SDS_P1;SDS_P2;PMS_P1;PMS_P2;Temp;Humidity;BMP_temperature;BMP_pressure;BME280_temperature;BME280_humidity;BME280_pressure;Samples;Min_cycle;Max_cycle;Signal;HPM_P1;HPM_P2
2023/07/14 00:00:18;;;;;;;11.10;3.65;;;;;;;;;;5059680;28;20119;-70
2023/07/14 00:02:46;;;;;;;12.00;4.20;;;;;;;;;;5078592;28;20063;-70
2023/07/14 00:05:14;;;;;;;12.43;3.60;;;;;;;;;;5074914;28;20048;-70
2023/07/14 00:07:40;;;;;;;10.02;4.03;;;;;;;;;;5048007;28;20053;-70
2023/07/14 00:10:20;;;;;;;8.43;3.40;;;;;;;;;;5055879;28;20403;-69
2023/07/14 00:12:47;;;;;;;10.05;3.55;;;;;;;;;;5072676;28;20049;-70
2023/07/14 00:15:13;;;;;;;11.85;4.13;;;;;;;;;;5075609;28;20051;-70
2023/07/14 00:17:40;;;;;;;7.63;3.60;;;;;;;;;;5051217;28;20551;-69
2023/07/14 00:20:26;;;;;;;12.10;4.38;;;;;;;;;;5069703;28;20441;-69
2023/07/14 00:22:53;;;;;;;8.95;3.72;;;;;;;;;;5074263;28;21581;-69
2023/07/14 00:25:20;;;;;;;9.63;4.07;;;;;;;;;;5078680;28;20499;-69
2023/07/14 00:27:46;;;;;;;12.70;4.00;;;;;;;;;;5077694;28;20075;-69
2023/07/14 00:30:14;;;;;;;9.38;3.92;;;;;;;;;;5076130;28;20072;-69
2023/07/14 00:32:41;;;;;;;10.45;4.20;;;;;;;;;;5059407;28;20075;-70
2023/07/14 00:35:16;;;;;;;13.35;4.57;;;;;;;;;;5056909;28;20441;-70
2023/07/14 00:37:42;;;;;;;10.07;3.80;;;;;;;;;;5059202;28;20503;-70
2023/07/14 00:40:12;;;;;;;8.35;4.00;;;;;;;;;;5079053;28;20032;-70
2023/07/14 00:42:39;;;;;;;10.88;4.30;;;;;;;;;;5077127;28;20052;-69
2023/07/14 00:45:09;;;;;;;9.88;4.03;;;;;;;;;;5075903;28;20036;-70
2023/07/14 00:47:35;;;;;;;12.80;4.90;;;;;;;;;;5077489;28;20044;-69
2023/07/14 00:50:02;;;;;;;13.98;4.25;;;;;;;;;;5075659;28;20395;-70
2023/07/14 00:52:31;;;;;;;14.05;4.22;;;;;;;;;;5079631;28;20044;-70
2023/07/14 00:54:57;;;;;;;12.75;4.18;;;;;;;;;;5078301;28;20143;-69
2023/07/14 00:57:26;;;;;;;12.18;4.05;;;;;;;;;;5071622;28;20507;-69
2023/07/14 00:59:54;;;;;;;10.75;4.43;;;;;;;;;;5070538;28;20041;-69
2023/07/14 01:02:24;;;;;;;9.00;3.42;;;;;;;;;;5055364;28;20051;-69
2023/07/14 01:04:56;;;;;;;10.68;3.80;;;;;;;;;;5072865;28;20400;-70
2023/07/14 01:07:35;;;;;;;14.47;4.80;;;;;;;;;;5073076;28;20091;-69
2023/07/14 01:10:02;;;;;;;11.10;4.60;;;;;;;;;;5074021;28;20106;-70
2023/07/14 01:12:30;;;;;;;12.98;4.18;;;;;;;;;;5073201;28;20045;-70
2023/07/14 01:14:58;;;;;;;11.38;4.38;;;;;;;;;;5071430;28;20186;-70
2023/07/14 01:17:24;;;;;;;13.13;4.38;;;;;;;;;;5050595;28;20102;-70
2023/07/14 01:19:50;;;;;;;12.45;4.25;;;;;;;;;;5054071;28;20048;-70
2023/07/14 01:22:30;;;;;;;12.18;4.60;;;;;;;;;;5067658;28;20415;-69
2023/07/14 01:25:15;;;;;;;12.80;4.57;;;;;;;;;;5061357;28;20102;-70
2023/07/14 01:27:41;;;;;;;13.18;4.70;;;;;;;;;;5075993;28;21929;-70
2023/07/14 01:30:08;;;;;;;15.10;4.32;;;;;;;;;;5054208;28;20088;-70
2023/07/14 01:32:36;;;;;;;13.63;4.80;;;;;;;;;;5044798;28;20391;-70
2023/07/14 01:35:05;;;;;;;9.23;4.47;;;;;;;;;;5077891;28;20086;-70
2023/07/14 01:37:31;;;;;;;17.17;4.55;;;;;;;;;;5064403;28;20056;-70
2023/07/14 01:39:58;;;;;;;13.10;4.30;;;;;;;;;;5080888;28;20051;-70
2023/07/14 01:42:24;;;;;;;11.10;4.35;;;;;;;;;;5074292;28;20036;-70
2023/07/14 01:44:50;;;;;;;15.68;4.53;;;;;;;;;;5071822;28;20124;-69
2023/07/14 01:47:17;;;;;;;12.65;4.30;;;;;;;;;;5070321;28;20168;-70
2023/07/14 01:49:47;;;;;;;10.40;4.30;;;;;;;;;;5059583;28;20093;-70
2023/07/14 01:52:15;;;;;;;16.27;4.47;;;;;;;;;;5057079;28;20127;-70
2023/07/14 01:54:52;;;;;;;12.52;4.30;;;;;;;;;;5053711;28;20044;-70
2023/07/14 01:57:21;;;;;;;15.82;4.70;;;;;;;;;;5072928;28;20097;-70
2023/07/14 01:59:50;;;;;;;10.52;4.28;;;;;;;;;;5052597;28;20404;-70
2023/07/14 02:02:21;;;;;;;9.05;3.95;;;;;;;;;;5071999;28;20044;-70
2023/07/14 02:04:49;;;;;;;10.10;4.20;;;;;;;;;;5054644;28;20048;-70
2023/07/14 02:07:15;;;;;;;10.63;4.30;;;;;;;;;;5070953;28;20055;-70
2023/07/14 02:09:41;;;;;;;7.40;4.10;;;;;;;;;;5057803;28;20140;-70
2023/07/14 02:12:14;;;;;;;10.98;4.10;;;;;;;;;;5074709;28;20039;-70
2023/07/14 02:14:49;;;;;;;12.10;4.78;;;;;;;;;;5076187;28;20110;-70
2023/07/14 02:17:24;;;;;;;8.32;4.13;;;;;;;;;;5059196;28;20044;-70
2023/07/14 02:19:51;;;;;;;11.93;4.50;;;;;;;;;;5074468;28;20072;-70
2023/07/14 02:22:17;;;;;;;11.32;3.88;;;;;;;;;;5054513;28;20044;-70
2023/07/14 02:24:43;;;;;;;12.27;4.57;;;;;;;;;;5075632;28;20040;-70
2023/07/14 02:27:11;;;;;;;12.93;4.53;;;;;;;;;;5081555;28;20075;-70
2023/07/14 02:29:37;;;;;;;12.65;4.38;;;;;;;;;;5075869;28;20048;-70
2023/07/14 02:32:10;;;;;;;11.00;4.40;;;;;;;;;;5078949;28;20036;-70
2023/07/14 02:34:40;;;;;;;8.73;4.05;;;;;;;;;;5077463;28;20047;-70
2023/07/14 02:37:32;;;;;;;8.88;4.13;;;;;;;;;;5078306;28;20082;-70
2023/07/14 02:40:00;;;;;;;12.25;4.18;;;;;;;;;;5083676;28;20110;-70
2023/07/14 02:42:26;;;;;;;10.52;4.70;;;;;;;;;;5059046;28;20469;-70
2023/07/14 02:44:52;;;;;;;13.23;4.55;;;;;;;;;;5071784;28;20273;-70
2023/07/14 02:47:21;;;;;;;10.80;3.95;;;;;;;;;;5070260;28;20070;-70
2023/07/14 02:49:48;;;;;;;12.23;4.78;;;;;;;;;;5062859;28;20044;-70
2023/07/14 02:52:14;;;;;;;7.78;4.22;;;;;;;;;;5062137;28;20051;-70
2023/07/14 02:54:41;;;;;;;10.40;4.10;;;;;;;;;;5069861;28;20503;-70
2023/07/14 02:57:07;;;;;;;10.43;4.30;;;;;;;;;;5070136;28;20511;-70
2023/07/14 02:59:33;;;;;;;9.90;4.68;;;;;;;;;;5070392;28;20449;-70
2023/07/14 03:01:59;;;;;;;12.70;4.80;;;;;;;;;;5070144;28;20047;-70
2023/07/14 03:04:25;;;;;;;11.25;4.65;;;;;;;;;;5071348;28;20048;-70
2023/07/14 03:06:51;;;;;;;13.60;4.40;;;;;;;;;;5051560;28;20084;-70
2023/07/14 03:09:18;;;;;;;12.70;4.80;;;;;;;;;;5071207;28;20149;-70
2023/07/14 03:11:44;;;;;;;10.82;4.13;;;;;;;;;;5071031;28;20044;-70
2023/07/14 03:14:10;;;;;;;16.23;4.65;;;;;;;;;;5068949;28;20050;-70
2023/07/14 03:16:36;;;;;;;9.65;3.92;;;;;;;;;;5052377;28;20174;-70
2023/07/14 03:19:03;;;;;;;12.20;4.57;;;;;;;;;;5066421;28;20457;-70
2023/07/14 03:21:29;;;;;;;10.63;3.80;;;;;;;;;;5057544;28;20266;-70
2023/07/14 03:23:55;;;;;;;10.85;4.72;;;;;;;;;;5085689;28;20063;-70
2023/07/14 03:26:21;;;;;;;11.70;4.82;;;;;;;;;;5050659;28;20086;-69
2023/07/14 03:28:47;;;;;;;9.93;4.18;;;;;;;;;;5071189;28;20048;-70
2023/07/14 03:31:13;;;;;;;15.98;4.30;;;;;;;;;;5070650;28;20507;-70
2023/07/14 03:33:39;;;;;;;10.45;4.43;;;;;;;;;;5086142;28;20520;-70
2023/07/14 03:36:08;;;;;;;10.80;4.10;;;;;;;;;;5074986;28;20394;-70
2023/07/14 03:38:44;;;;;;;12.00;4.70;;;;;;;;;;5054543;28;20048;-70
2023/07/14 03:41:11;;;;;;;16.02;4.75;;;;;;;;;;5069245;28;20051;-70
2023/07/14 03:43:37;;;;;;;12.85;4.43;;;;;;;;;;5057078;28;20377;-70
2023/07/14 03:46:03;;;;;;;10.73;4.00;;;;;;;;;;5076823;28;20044;-70
2023/07/14 03:48:29;;;;;;;10.15;4.35;;;;;;;;;;5078244;28;20043;-70
2023/07/14 03:51:02;;;;;;;9.90;4.50;;;;;;;;;;5073860;28;20036;-70
2023/07/14 03:53:28;;;;;;;9.57;4.75;;;;;;;;;;5074500;28;20048;-70
2023/07/14 03:55:54;;;;;;;14.00;4.82;;;;;;;;;;5074069;28;20032;-70
2023/07/14 03:58:20;;;;;;;7.60;4.15;;;;;;;;;;5057497;28;20044;-70
2023/07/14 04:00:46;;;;;;;10.98;4.60;;;;;;;;;;5076686;28;20051;-70
2023/07/14 04:03:12;;;;;;;12.90;4.60;;;;;;;;;;5039776;28;20242;-70
2023/07/14 04:05:38;;;;;;;15.50;5.38;;;;;;;;;;5076953;28;20036;-70
2023/07/14 04:08:04;;;;;;;13.43;5.20;;;;;;;;;;5070888;28;20083;-70
2023/07/14 04:10:30;;;;;;;14.48;4.70;;;;;;;;;;5073743;28;20391;-70
2023/07/14 04:12:59;;;;;;;11.23;4.97;;;;;;;;;;5073525;28;20044;-70
2023/07/14 04:15:25;;;;;;;12.07;4.70;;;;;;;;;;5074858;28;20501;-70
2023/07/14 04:17:51;;;;;;;10.05;4.63;;;;;;;;;;5074808;28;20083;-70
2023/07/14 04:20:17;;;;;;;10.85;4.63;;;;;;;;;;5071609;28;20036;-70
2023/07/14 04:22:43;;;;;;;10.18;4.72;;;;;;;;;;5072232;28;20048;-70
2023/07/14 04:25:09;;;;;;;9.15;4.43;;;;;;;;;;5072751;28;20032;-70
2023/07/14 04:27:36;;;;;;;7.93;4.20;;;;;;;;;;5056967;28;20061;-70
2023/07/14 04:30:03;;;;;;;13.93;4.50;;;;;;;;;;5057112;28;20452;-70
2023/07/14 04:32:29;;;;;;;9.40;5.43;;;;;;;;;;5073746;28;20412;-70
2023/07/14 04:34:55;;;;;;;11.43;4.60;;;;;;;;;;5079316;28;20127;-70
2023/07/14 04:37:21;;;;;;;11.77;5.30;;;;;;;;;;5058718;28;20525;-70
2023/07/14 04:39:48;;;;;;;9.30;4.90;;;;;;;;;;5081047;28;20032;-70
2023/07/14 04:42:14;;;;;;;9.02;4.63;;;;;;;;;;5071042;28;20045;-70
2023/07/14 04:44:40;;;;;;;10.88;4.70;;;;;;;;;;5073346;28;20072;-70
2023/07/14 04:47:06;;;;;;;9.00;4.47;;;;;;;;;;5052998;28;20044;-70
2023/07/14 04:49:33;;;;;;;12.20;4.90;;;;;;;;;;5073156;28;20051;-70
2023/07/14 04:51:59;;;;;;;11.35;5.18;;;;;;;;;;5053622;28;20044;-70
2023/07/14 04:54:25;;;;;;;9.18;4.50;;;;;;;;;;5051788;28;20041;-70
2023/07/14 04:56:51;;;;;;;10.52;5.00;;;;;;;;;;5071607;28;20099;-70
2023/07/14 04:59:18;;;;;;;12.55;4.97;;;;;;;;;;5055639;28;20515;-70
2023/07/14 05:01:44;;;;;;;9.90;4.53;;;;;;;;;;5073673;28;20556;-70
2023/07/14 05:04:10;;;;;;;10.00;5.00;;;;;;;;;;5073044;28;20397;-70
2023/07/14 05:06:36;;;;;;;9.05;4.70;;;;;;;;;;5072682;28;20074;-70
2023/07/14 05:09:03;;;;;;;10.02;5.03;;;;;;;;;;5073323;28;20479;-70
2023/07/14 05:11:29;;;;;;;10.27;4.55;;;;;;;;;;5049369;28;20068;-71
2023/07/14 05:13:55;;;;;;;8.68;4.55;;;;;;;;;;5053642;28;20117;-70
2023/07/14 05:16:22;;;;;;;16.75;8.20;;;;;;;;;;5073622;28;20042;-70
2023/07/14 05:18:48;;;;;;;11.32;5.68;;;;;;;;;;5069462;28;20052;-70
2023/07/14 05:21:14;;;;;;;12.77;4.88;;;;;;;;;;5071430;28;20405;-71
2023/07/14 05:23:40;;;;;;;13.20;5.03;;;;;;;;;;5070928;28;20052;-70
2023/07/14 05:26:07;;;;;;;8.90;4.70;;;;;;;;;;5058361;28;20063;-71
2023/07/14 05:28:33;;;;;;;10.63;5.05;;;;;;;;;;5072517;28;20072;-70
2023/07/14 05:31:00;;;;;;;7.88;4.15;;;;;;;;;;5073258;28;20044;-70
2023/07/14 05:33:26;;;;;;;14.02;5.47;;;;;;;;;;5075761;28;20043;-70
2023/07/14 05:35:52;;;;;;;13.52;4.75;;;;;;;;;;5078325;28;20036;-70
2023/07/14 05:38:18;;;;;;;14.23;5.13;;;;;;;;;;5057843;28;20480;-70
2023/07/14 05:40:51;;;;;;;9.68;5.13;;;;;;;;;;5057559;28;20084;-71
2023/07/14 05:43:17;;;;;;;8.20;4.85;;;;;;;;;;5077001;28;20092;-70
2023/07/14 05:45:47;;;;;;;9.68;5.13;;;;;;;;;;5058250;28;20474;-70
2023/07/14 05:48:14;;;;;;;11.48;5.70;;;;;;;;;;5078383;28;20518;-71
2023/07/14 05:50:40;;;;;;;13.38;5.07;;;;;;;;;;5072511;28;20056;-70
2023/07/14 05:53:06;;;;;;;8.52;5.03;;;;;;;;;;5056733;28;20506;-70
2023/07/14 05:55:32;;;;;;;12.65;5.05;;;;;;;;;;5056413;28;20082;-70
2023/07/14 05:57:59;;;;;;;10.52;4.90;;;;;;;;;;5056183;28;20043;-71
2023/07/14 06:00:25;;;;;;;9.85;5.53;;;;;;;;;;5064051;28;20052;-70
2023/07/14 06:02:51;;;;;;;7.75;4.97;;;;;;;;;;5078714;28;20047;-70
2023/07/14 06:05:19;;;;;;;11.15;5.50;;;;;;;;;;5092803;28;20059;-70
2023/07/14 06:07:45;;;;;;;13.48;5.80;;;;;;;;;;5089189;28;20208;-70
2023/07/14 06:10:12;;;;;;;10.55;5.88;;;;;;;;;;5065098;28;20098;-70
2023/07/14 06:12:38;;;;;;;12.75;5.80;;;;;;;;;;5072189;28;20396;-70
2023/07/14 06:15:05;;;;;;;13.15;5.70;;;;;;;;;;5074514;28;20036;-70
2023/07/14 06:17:31;;;;;;;14.57;6.70;;;;;;;;;;5074766;28;20040;-70
2023/07/14 06:19:57;;;;;;;10.80;5.85;;;;;;;;;;5073748;28;20047;-70
2023/07/14 06:22:23;;;;;;;12.23;5.90;;;;;;;;;;5058954;28;20048;-70
2023/07/14 06:24:52;;;;;;;10.60;5.45;;;;;;;;;;5077700;28;20047;-70
2023/07/14 06:27:18;;;;;;;6.90;5.40;;;;;;;;;;5075188;28;20036;-70
2023/07/14 06:29:45;;;;;;;9.70;5.65;;;;;;;;;;5050811;28;20488;-70
2023/07/14 06:32:12;;;;;;;11.65;5.97;;;;;;;;;;5071560;28;20051;-70
2023/07/14 06:34:38;;;;;;;7.43;5.68;;;;;;;;;;5051546;28;20063;-70
2023/07/14 06:37:04;;;;;;;8.82;5.82;;;;;;;;;;5077178;28;20606;-70
2023/07/14 06:39:31;;;;;;;8.80;5.43;;;;;;;;;;5055964;28;20078;-70
2023/07/14 06:41:57;;;;;;;9.88;5.70;;;;;;;;;;5076745;28;20387;-70
2023/07/14 06:44:23;;;;;;;12.10;6.20;;;;;;;;;;5072785;28;20381;-71
2023/07/14 06:46:49;;;;;;;10.75;6.00;;;;;;;;;;5055000;28;20095;-70
2023/07/14 06:49:15;;;;;;;9.40;5.57;;;;;;;;;;5053878;28;20044;-70
2023/07/14 06:51:41;;;;;;;12.05;5.70;;;;;;;;;;5073077;28;20119;-71
2023/07/14 06:54:07;;;;;;;9.80;5.50;;;;;;;;;;5072187;28;20040;-70
2023/07/14 06:56:33;;;;;;;9.50;5.57;;;;;;;;;;5051172;28;20044;-70
2023/07/14 06:59:02;;;;;;;11.48;5.13;;;;;;;;;;5065310;28;20044;-70
2023/07/14 07:01:28;;;;;;;11.23;5.32;;;;;;;;;;5070443;28;20059;-71
2023/07/14 07:03:54;;;;;;;10.27;5.25;;;;;;;;;;5070191;28;20053;-70
2023/07/14 07:06:20;;;;;;;11.55;5.40;;;;;;;;;;5069698;28;20399;-71
2023/07/14 07:08:46;;;;;;;7.50;4.93;;;;;;;;;;5053228;28;20359;-70
2023/07/14 07:11:15;;;;;;;12.20;5.55;;;;;;;;;;5068420;28;20040;-70
2023/07/14 07:13:41;;;;;;;8.90;5.38;;;;;;;;;;5083181;28;20123;-70
2023/07/14 07:16:08;;;;;;;10.10;5.80;;;;;;;;;;5050456;28;20049;-70
2023/07/14 07:18:34;;;;;;;9.40;4.95;;;;;;;;;;5064638;28;20049;-70
2023/07/14 07:21:00;;;;;;;11.77;5.50;;;;;;;;;;5063128;28;20409;-71
2023/07/14 07:23:26;;;;;;;10.48;5.10;;;;;;;;;;5049395;28;20052;-70
2023/07/14 07:25:53;;;;;;;10.35;5.60;;;;;;;;;;5054463;28;20036;-70
2023/07/14 07:28:19;;;;;;;11.85;5.40;;;;;;;;;;5070908;28;20400;-70
2023/07/14 07:30:46;;;;;;;11.57;5.60;;;;;;;;;;5069373;28;20044;-71
2023/07/14 07:33:12;;;;;;;8.98;4.90;;;;;;;;;;5070784;28;20048;-70
2023/07/14 07:35:39;;;;;;;12.90;5.30;;;;;;;;;;5046206;28;20040;-71
2023/07/14 07:38:05;;;;;;;9.82;4.63;;;;;;;;;;5048686;28;20123;-70
2023/07/14 07:40:31;;;;;;;11.98;5.40;;;;;;;;;;5048531;28;20044;-70
2023/07/14 07:42:58;;;;;;;7.60;4.90;;;;;;;;;;5086083;28;20051;-70
2023/07/14 07:45:24;;;;;;;8.85;5.03;;;;;;;;;;5068668;28;20179;-70
2023/07/14 07:47:50;;;;;;;8.43;5.50;;;;;;;;;;5065359;28;20049;-70
2023/07/14 07:50:16;;;;;;;11.40;5.30;;;;;;;;;;5070802;28;20128;-70
2023/07/14 07:52:42;;;;;;;9.73;5.35;;;;;;;;;;5047479;28;20049;-70
2023/07/14 07:55:08;;;;;;;10.82;5.32;;;;;;;;;;5077842;28;20040;-70
2023/07/14 07:57:34;;;;;;;10.88;5.13;;;;;;;;;;5070651;28;20037;-70
2023/07/14 08:00:00;;;;;;;8.65;5.43;;;;;;;;;;5066773;28;20037;-70
2023/07/14 08:02:26;;;;;;;9.80;5.45;;;;;;;;;;5051181;28;20131;-70
2023/07/14 08:04:52;;;;;;;9.15;6.05;;;;;;;;;;5069880;28;20055;-70
2023/07/14 08:07:19;;;;;;;8.48;5.43;;;;;;;;;;5052754;28;20101;-70
2023/07/14 08:09:45;;;;;;;12.18;5.88;;;;;;;;;;5070256;28;20059;-69
2023/07/14 08:12:11;;;;;;;11.23;5.63;;;;;;;;;;5054702;28;20051;-69
2023/07/14 08:14:50;;;;;;;10.95;5.43;;;;;;;;;;5066268;28;20045;-70
2023/07/14 08:17:17;;;;;;;10.48;5.80;;;;;;;;;;5059649;28;20174;-70
2023/07/14 08:19:45;;;;;;;10.70;6.03;;;;;;;;;;5071613;28;20048;-71
2023/07/14 08:22:11;;;;;;;10.52;5.57;;;;;;;;;;5072910;28;20086;-70
2023/07/14 08:24:37;;;;;;;9.57;5.68;;;;;;;;;;5057167;28;20134;-70
2023/07/14 08:27:03;;;;;;;10.20;5.15;;;;;;;;;;5040250;28;20058;-70
2023/07/14 08:29:29;;;;;;;9.88;5.15;;;;;;;;;;5057377;28;20036;-70
2023/07/14 08:31:55;;;;;;;10.18;5.07;;;;;;;;;;5074569;28;20451;-70
2023/07/14 08:34:22;;;;;;;12.95;5.57;;;;;;;;;;5072939;28;20404;-70
2023/07/14 08:36:48;;;;;;;9.52;5.35;;;;;;;;;;5049467;28;20041;-70
2023/07/14 08:39:15;;;;;;;12.10;5.10;;;;;;;;;;5068546;28;20032;-70
2023/07/14 08:41:43;;;;;;;11.48;5.03;;;;;;;;;;5080207;28;20046;-70
2023/07/14 08:44:21;;;;;;;10.02;5.65;;;;;;;;;;5074530;28;20051;-70
2023/07/14 08:46:58;;;;;;;12.73;6.07;;;;;;;;;;5054254;28;20056;-70
2023/07/14 08:49:24;;;;;;;11.25;5.20;;;;;;;;;;5054291;28;20111;-70
2023/07/14 08:52:02;;;;;;;11.10;5.85;;;;;;;;;;5057884;28;20048;-70
2023/07/14 08:54:32;;;;;;;11.40;5.80;;;;;;;;;;5078396;28;20511;-70
2023/07/14 08:56:58;;;;;;;10.35;5.60;;;;;;;;;;5071759;28;20457;-70
2023/07/14 08:59:32;;;;;;;11.35;5.75;;;;;;;;;;5062190;28;20055;-70
2023/07/14 09:01:59;;;;;;;10.05;5.85;;;;;;;;;;5061098;28;20036;-71
2023/07/14 09:04:32;;;;;;;13.00;6.22;;;;;;;;;;5076144;28;20043;-70
2023/07/14 09:06:58;;;;;;;13.50;5.90;;;;;;;;;;5075533;28;20563;-70
2023/07/14 09:09:32;;;;;;;10.70;5.90;;;;;;;;;;5058375;28;20057;-70
2023/07/14 09:12:04;;;;;;;8.65;5.40;;;;;;;;;;5069869;28;20046;-71
2023/07/14 09:14:39;;;;;;;9.68;5.50;;;;;;;;;;5071769;28;20127;-70
2023/07/14 09:17:24;;;;;;;10.23;5.40;;;;;;;;;;5055855;28;20036;-70
2023/07/14 09:20:03;;;;;;;8.70;5.43;;;;;;;;;;5055870;28;20048;-71
2023/07/14 09:22:34;;;;;;;7.75;5.18;;;;;;;;;;5059423;28;20058;-70
2023/07/14 09:25:03;;;;;;;7.20;5.25;;;;;;;;;;5039129;28;20044;-70
2023/07/14 09:27:31;;;;;;;10.85;4.70;;;;;;;;;;5044268;28;20063;-70
2023/07/14 09:29:57;;;;;;;8.63;5.00;;;;;;;;;;5067390;28;20221;-71
2023/07/14 09:32:32;;;;;;;10.20;5.20;;;;;;;;;;5066398;28;20079;-70
2023/07/14 09:35:18;;;;;;;8.13;4.88;;;;;;;;;;5070649;28;20048;-71
2023/07/14 09:37:50;;;;;;;7.78;4.60;;;;;;;;;;5065309;28;20040;-70
2023/07/14 09:40:23;;;;;;;8.45;4.75;;;;;;;;;;5063728;28;20142;-70
2023/07/14 09:42:53;;;;;;;11.00;5.70;;;;;;;;;;5065263;28;20033;-70
2023/07/14 09:45:25;;;;;;;10.30;5.68;;;;;;;;;;5048050;28;20044;-70
2023/07/14 09:47:57;;;;;;;8.93;5.47;;;;;;;;;;5071052;28;20461;-70
2023/07/14 09:50:24;;;;;;;11.32;5.55;;;;;;;;;;5065023;28;20060;-70
2023/07/14 09:52:53;;;;;;;7.03;5.25;;;;;;;;;;5069861;28;20047;-70
2023/07/14 09:55:19;;;;;;;9.52;5.30;;;;;;;;;;5053623;28;20436;-70
2023/07/14 09:57:47;;;;;;;10.40;5.75;;;;;;;;;;5071729;28;20404;-70
2023/07/14 10:00:19;;;;;;;9.80;5.65;;;;;;;;;;5070435;28;20040;-70
2023/07/14 10:02:50;;;;;;;14.15;6.25;;;;;;;;;;5082842;28;20499;-70
2023/07/14 10:05:36;;;;;;;9.70;5.88;;;;;;;;;;5090600;28;20040;-70
2023/07/14 10:08:07;;;;;;;7.82;5.85;;;;;;;;;;5075209;28;20052;-70
2023/07/14 10:10:35;;;;;;;8.85;5.82;;;;;;;;;;5047874;28;20049;-70
2023/07/14 10:13:14;;;;;;;11.35;6.55;;;;;;;;;;5066802;28;20072;-70
2023/07/14 10:15:40;;;;;;;9.75;5.38;;;;;;;;;;5068969;28;20079;-70
2023/07/14 10:18:13;;;;;;;9.02;5.95;;;;;;;;;;5053333;28;20040;-70
2023/07/14 10:20:39;;;;;;;14.55;6.78;;;;;;;;;;5043443;28;20531;-70
2023/07/14 10:23:13;;;;;;;12.35;6.75;;;;;;;;;;5043699;28;20090;-70
2023/07/14 10:25:40;;;;;;;11.00;6.90;;;;;;;;;;5046395;28;20056;-70
2023/07/14 10:28:13;;;;;;;11.43;6.57;;;;;;;;;;5067123;28;20426;-70
2023/07/14 10:30:42;;;;;;;10.73;6.82;;;;;;;;;;5065454;28;20140;-70
2023/07/14 10:33:31;;;;;;;12.10;6.82;;;;;;;;;;5088093;28;20036;-70
2023/07/14 10:36:03;;;;;;;13.52;6.82;;;;;;;;;;5047065;28;20109;-70
2023/07/14 10:38:50;;;;;;;10.38;6.35;;;;;;;;;;5085368;28;20433;-70
2023/07/14 10:41:16;;;;;;;10.10;6.78;;;;;;;;;;5056519;28;20040;-70
2023/07/14 10:43:48;;;;;;;11.52;6.65;;;;;;;;;;5079972;28;20048;-70
2023/07/14 10:46:17;;;;;;;10.43;6.68;;;;;;;;;;5078520;28;20074;-70
2023/07/14 10:48:47;;;;;;;11.57;7.47;;;;;;;;;;5052159;28;20059;-70
2023/07/14 10:51:28;;;;;;;10.27;6.60;;;;;;;;;;5052114;28;20518;-70
2023/07/14 10:53:57;;;;;;;12.40;7.00;;;;;;;;;;5069819;28;20044;-70
2023/07/14 10:56:25;;;;;;;11.65;8.00;;;;;;;;;;5067447;28;20046;-71
2023/07/14 10:58:56;;;;;;;11.55;7.90;;;;;;;;;;5050155;28;20066;-70
2023/07/14 11:01:29;;;;;;;12.70;8.25;;;;;;;;;;5059764;28;20040;-71
2023/07/14 11:04:19;;;;;;;11.27;8.00;;;;;;;;;;5052526;28;20048;-71
2023/07/14 11:06:46;;;;;;;15.55;8.48;;;;;;;;;;5045910;28;21103;-70
2023/07/14 11:09:14;;;;;;;17.45;8.50;;;;;;;;;;5067459;28;20040;-70
2023/07/14 11:11:40;;;;;;;13.52;9.13;;;;;;;;;;5044180;28;20049;-70
2023/07/14 11:14:25;;;;;;;12.32;8.70;;;;;;;;;;5045965;28;20128;-70
2023/07/14 11:17:00;;;;;;;13.10;8.88;;;;;;;;;;5040555;28;20044;-70
2023/07/14 11:19:47;;;;;;;14.68;9.50;;;;;;;;;;5052190;28;20396;-70
2023/07/14 11:22:22;;;;;;;12.63;9.43;;;;;;;;;;5044282;28;20056;-70
2023/07/14 11:25:05;;;;;;;15.88;9.35;;;;;;;;;;5071968;28;20411;-69
2023/07/14 11:27:35;;;;;;;13.38;10.00;;;;;;;;;;5051319;28;20046;-70
2023/07/14 11:30:12;;;;;;;13.40;9.63;;;;;;;;;;5064348;28;20152;-70
2023/07/14 11:32:49;;;;;;;12.43;8.95;;;;;;;;;;5066742;28;20412;-69
2023/07/14 11:35:31;;;;;;;14.13;10.05;;;;;;;;;;5069427;28;20091;-70
2023/07/14 11:37:57;;;;;;;13.70;9.07;;;;;;;;;;5073027;28;20067;-70
2023/07/14 11:40:25;;;;;;;16.95;9.25;;;;;;;;;;5073120;28;20079;-70
2023/07/14 11:42:54;;;;;;;11.52;8.20;;;;;;;;;;5052072;28;20044;-70
2023/07/14 11:45:22;;;;;;;14.90;9.27;;;;;;;;;;5072833;28;20618;-70
2023/07/14 11:47:48;;;;;;;12.02;8.90;;;;;;;;;;5057899;28;20434;-70
2023/07/14 11:50:17;;;;;;;15.63;8.93;;;;;;;;;;5076776;28;20072;-70
2023/07/14 11:53:02;;;;;;;17.17;9.43;;;;;;;;;;5075312;28;20052;-70
2023/07/14 11:55:30;;;;;;;13.27;9.40;;;;;;;;;;5077886;28;20112;-70
2023/07/14 11:58:12;;;;;;;16.83;9.25;;;;;;;;;;5055349;28;20040;-70
2023/07/14 12:00:43;;;;;;;12.27;8.55;;;;;;;;;;5056320;28;20056;-70
2023/07/14 12:03:24;;;;;;;16.55;10.00;;;;;;;;;;5066790;28;20096;-70
2023/07/14 12:06:10;;;;;;;15.00;9.57;;;;;;;;;;5078781;28;20523;-70
2023/07/14 12:08:38;;;;;;;17.35;9.90;;;;;;;;;;5066954;28;20125;-70
2023/07/14 12:11:04;;;;;;;15.00;8.90;;;;;;;;;;5070642;28;20054;-70
2023/07/14 12:13:34;;;;;;;13.45;9.68;;;;;;;;;;5071619;28;20404;-70
2023/07/14 12:16:00;;;;;;;17.90;9.82;;;;;;;;;;5076682;28;20052;-70
2023/07/14 12:18:34;;;;;;;17.15;11.05;;;;;;;;;;5071579;28;20143;-69
2023/07/14 12:21:15;;;;;;;15.13;9.95;;;;;;;;;;5073961;28;20048;-70
2023/07/14 12:23:42;;;;;;;17.38;10.60;;;;;;;;;;5070985;28;20037;-70
2023/07/14 12:26:28;;;;;;;15.63;9.95;;;;;;;;;;5069017;28;20048;-70
2023/07/14 12:28:54;;;;;;;17.50;10.10;;;;;;;;;;5062123;28;20048;-70
2023/07/14 12:31:20;;;;;;;12.55;10.43;;;;;;;;;;5067831;28;20574;-70
2023/07/14 12:33:47;;;;;;;14.00;10.32;;;;;;;;;;5055055;28;20040;-69
2023/07/14 12:36:15;;;;;;;17.67;10.15;;;;;;;;;;5056819;28;20083;-70
2023/07/14 12:38:48;;;;;;;18.13;10.80;;;;;;;;;;5056527;28;20072;-70
2023/07/14 12:41:16;;;;;;;14.50;10.63;;;;;;;;;;5081291;28;20127;-69
2023/07/14 12:44:03;;;;;;;26.55;11.35;;;;;;;;;;5086091;28;20295;-69
2023/07/14 12:46:31;;;;;;;17.48;11.80;;;;;;;;;;5065962;28;20052;-69
2023/07/14 12:49:05;;;;;;;17.42;10.48;;;;;;;;;;5065608;28;20047;-69
2023/07/14 12:51:36;;;;;;;15.90;9.27;;;;;;;;;;5053885;28;20135;-69
2023/07/14 12:54:04;;;;;;;20.75;8.02;;;;;;;;;;5051827;28;20052;-70
2023/07/14 12:56:31;;;;;;;14.07;9.48;;;;;;;;;;5067629;28;20456;-70
2023/07/14 12:59:00;;;;;;;14.88;8.13;;;;;;;;;;5072732;28;20044;-70
2023/07/14 13:01:27;;;;;;;15.77;8.75;;;;;;;;;;5053671;28;20082;-69
2023/07/14 13:03:53;;;;;;;14.25;9.63;;;;;;;;;;5055700;28;20790;-71
2023/07/14 13:06:21;;;;;;;16.80;12.13;;;;;;;;;;5069844;28;20474;-69
2023/07/14 13:08:48;;;;;;;18.60;12.18;;;;;;;;;;5064049;28;20467;-70
2023/07/14 13:11:19;;;;;;;14.85;12.00;;;;;;;;;;5052298;28;20083;-69
2023/07/14 13:13:46;;;;;;;19.40;12.75;;;;;;;;;;5069528;28;20084;-70
2023/07/14 13:16:12;;;;;;;17.38;13.20;;;;;;;;;;5066667;28;20052;-70
2023/07/14 13:18:39;;;;;;;17.77;13.40;;;;;;;;;;5071764;28;20551;-70
2023/07/14 13:21:25;;;;;;;18.90;11.90;;;;;;;;;;5071170;28;20040;-69
2023/07/14 13:23:55;;;;;;;15.40;11.50;;;;;;;;;;5047809;28;20056;-70
2023/07/14 13:26:21;;;;;;;16.83;11.32;;;;;;;;;;5067878;28;20044;-70
2023/07/14 13:28:58;;;;;;;15.73;10.52;;;;;;;;;;5043661;28;20400;-70
2023/07/14 13:31:37;;;;;;;14.43;10.68;;;;;;;;;;5072843;28;20400;-69
2023/07/14 13:34:23;;;;;;;14.23;11.40;;;;;;;;;;5075055;28;20119;-70
2023/07/14 13:36:53;;;;;;;18.63;12.48;;;;;;;;;;5054301;28;20080;-70
2023/07/14 13:39:25;;;;;;;18.27;11.60;;;;;;;;;;5068433;28;20124;-70
2023/07/14 13:41:55;;;;;;;17.45;12.13;;;;;;;;;;5059513;28;20150;-70
2023/07/14 13:44:28;;;;;;;18.75;12.73;;;;;;;;;;5075288;28;20044;-71
2023/07/14 13:46:54;;;;;;;;;;;;;;;;;;5066777;28;20040;-70
2023/07/14 13:49:20;;;;;;;19.73;10.10;;;;;;;;;;5062659;28;19920;-71
2023/07/14 13:51:46;;;;;;;14.82;10.15;;;;;;;;;;5046187;28;20072;-70
2023/07/14 13:54:16;;;;;;;15.60;10.63;;;;;;;;;;5048096;28;20072;-70
2023/07/14 13:56:42;;;;;;;15.43;10.52;;;;;;;;;;5048041;28;20032;-70
2023/07/14 13:59:17;;;;;;;14.63;9.43;;;;;;;;;;5067733;28;22319;-70
2023/07/14 14:01:44;;;;;;;13.95;9.88;;;;;;;;;;5055224;28;20037;-70
2023/07/14 14:04:12;;;;;;;13.95;9.48;;;;;;;;;;5077877;28;20071;-70
2023/07/14 14:06:38;;;;;;;14.15;9.27;;;;;;;;;;5048486;28;20076;-70
2023/07/14 14:09:17;;;;;;;13.75;10.65;;;;;;;;;;5081153;28;20055;-71
2023/07/14 14:11:43;;;;;;;13.13;9.40;;;;;;;;;;5059162;28;20098;-70
2023/07/14 14:14:10;;;;;;;16.33;10.20;;;;;;;;;;5071228;28;20089;-71
2023/07/14 14:16:36;;;;;;;13.13;9.43;;;;;;;;;;5082322;28;20561;-70
2023/07/14 14:19:05;;;;;;;18.45;9.70;;;;;;;;;;5072757;28;20036;-70
2023/07/14 14:21:33;;;;;;;15.02;9.38;;;;;;;;;;5057217;28;20110;-70
2023/07/14 14:23:59;;;;;;;17.17;10.13;;;;;;;;;;5070394;28;20454;-70
2023/07/14 14:26:25;;;;;;;12.43;9.68;;;;;;;;;;5076532;28;20040;-70
2023/07/14 14:28:51;;;;;;;15.68;9.57;;;;;;;;;;5068821;28;20048;-70
2023/07/14 14:31:18;;;;;;;14.43;9.50;;;;;;;;;;5052647;28;20483;-70
2023/07/14 14:33:44;;;;;;;12.10;9.02;;;;;;;;;;5051936;28;20407;-70
2023/07/14 14:36:10;;;;;;;10.82;7.75;;;;;;;;;;5072738;28;20040;-70
2023/07/14 14:38:36;;;;;;;11.55;8.10;;;;;;;;;;5078415;28;20040;-70
2023/07/14 14:41:04;;;;;;;10.50;8.50;;;;;;;;;;5071175;28;20043;-70